Time;durP1;ratioP1;P1;durP2;ratioP2;P2;SDS_P1;SDS_P2;PMS_P1;PMS_P2;Temp;Humidity;BMP_temperature;BMP_pressure;BME280_temperature;BME280_humidity;BME280_pressure;Samples;Min_cycle;Max_cycle;Signal;HPM_P1;HPM_P2
2022/12/06 00:01:09;;;;;;;8.70;6.00;;;4.60;29.90;;;;;;5010967;28;20033;-79
2022/12/06 00:03:36;;;;;;;8.43;6.05;;;4.60;30.40;;;;;;5010740;28;20387;-80
2022/12/06 00:06:03;;;;;;;7.00;5.03;;;4.50;33.10;;;;;;5015735;28;20025;-79
2022/12/06 00:08:29;;;;;;;8.23;6.00;;;4.50;34.90;;;;;;5015611;28;20026;-79
2022/12/06 00:11:05;;;;;;;8.73;6.18;;;4.50;37.40;;;;;;5013937;28;20030;-80
2022/12/06 00:13:32;;;;;;;7.47;5.15;;;4.50;36.90;;;;;;5017652;28;20030;-79
2022/12/06 00:16:07;;;;;;;10.23;5.65;;;4.50;37.60;;;;;;5015566;28;20123;-80
2022/12/06 00:18:35;;;;;;;8.88;6.22;;;4.50;39.00;;;;;;4981338;28;20034;-79
2022/12/06 00:21:09;;;;;;;7.85;5.45;;;4.50;40.60;;;;;;4989779;28;20022;-78
2022/12/06 00:23:41;;;;;;;9.65;6.57;;;4.50;42.90;;;;;;5004710;28;20041;-79
2022/12/06 00:26:08;;;;;;;12.40;6.38;;;4.50;43.90;;;;;;5009623;28;20026;-79
2022/12/06 00:28:36;;;;;;;8.75;5.18;;;4.50;44.20;;;;;;5008758;28;20030;-79
2022/12/06 00:31:05;;;;;;;8.50;6.05;;;4.50;44.10;;;;;;4981297;28;20042;-79
2022/12/06 00:33:33;;;;;;;8.95;6.22;;;4.50;48.80;;;;;;5007269;28;20352;-79
2022/12/06 00:36:09;;;;;;;9.40;6.28;;;4.50;56.30;;;;;;5013054;28;20049;-79
2022/12/06 00:38:35;;;;;;;11.57;7.18;;;4.40;63.40;;;;;;5003602;28;20031;-79
2022/12/06 00:41:10;;;;;;;8.80;6.35;;;4.40;70.30;;;;;;5010802;28;20026;-80
2022/12/06 00:43:37;;;;;;;7.85;5.38;;;4.40;74.10;;;;;;5013273;28;20370;-80
2022/12/06 00:46:05;;;;;;;10.13;6.45;;;4.40;75.50;;;;;;5008517;28;20368;-80
2022/12/06 00:48:32;;;;;;;8.95;6.15;;;4.40;74.30;;;;;;5013686;28;20455;-81
2022/12/06 00:50:58;;;;;;;8.65;6.22;;;4.40;75.90;;;;;;4995562;28;20042;-81
2022/12/06 00:53:25;;;;;;;8.95;6.75;;;4.40;78.90;;;;;;5002645;28;20060;-81
2022/12/06 00:55:51;;;;;;;7.70;5.80;;;4.40;84.10;;;;;;4996545;28;20371;-81
2022/12/06 00:58:17;;;;;;;9.25;7.20;;;4.40;88.20;;;;;;5004941;28;20392;-82
2022/12/06 01:00:44;;;;;;;9.35;6.07;;;4.40;91.80;;;;;;5008755;28;20037;-81
2022/12/06 01:03:10;;;;;;;10.52;7.07;;;4.30;94.90;;;;;;5013048;28;20048;-81
2022/12/06 01:05:41;;;;;;;9.52;6.15;;;4.30;98.50;;;;;;5004145;28;20045;-80
2022/12/06 01:08:08;;;;;;;10.95;7.88;;;4.30;99.90;;;;;;5004467;28;20030;-81
2022/12/06 01:10:34;;;;;;;13.20;9.50;;;4.30;99.90;;;;;;5001976;28;20041;-81
2022/12/06 01:13:00;;;;;;;16.27;11.57;;;4.30;99.90;;;;;;5009087;28;20049;-81
2022/12/06 01:15:26;;;;;;;12.90;9.57;;;4.30;99.90;;;;;;4995362;28;20038;-81
2022/12/06 01:17:53;;;;;;;12.35;7.03;;;4.30;99.90;;;;;;5012033;28;20033;-81
2022/12/06 01:20:19;;;;;;;12.30;9.13;;;4.30;99.90;;;;;;5008617;28;20030;-80
2022/12/06 01:22:45;;;;;;;13.07;8.25;;;4.30;99.90;;;;;;5008918;28;20030;-79
2022/12/06 01:25:11;;;;;;;11.48;7.18;;;4.30;99.90;;;;;;5005030;28;20030;-81
2022/12/06 01:27:37;;;;;;;9.75;7.15;;;4.30;99.90;;;;;;4996035;28;20459;-80
2022/12/06 01:30:05;;;;;;;12.52;8.20;;;4.30;99.90;;;;;;5008725;28;20022;-80
2022/12/06 01:32:31;;;;;;;11.13;7.38;;;4.30;99.90;;;;;;4995538;28;20034;-80
2022/12/06 01:34:58;;;;;;;12.88;7.47;;;4.20;99.90;;;;;;5005238;28;20034;-78
2022/12/06 01:37:24;;;;;;;13.85;8.43;;;4.20;99.90;;;;;;5012769;28;20358;-81
2022/12/06 01:39:50;;;;;;;14.80;8.10;;;4.20;99.90;;;;;;4995397;28;20037;-81
2022/12/06 01:42:19;;;;;;;14.90;7.43;;;4.20;99.90;;;;;;5013501;28;20041;-80
2022/12/06 01:44:53;;;;;;;11.30;7.20;;;4.20;99.90;;;;;;5014162;28;20089;-80
2022/12/06 01:47:41;;;;;;;13.73;8.18;;;4.20;99.90;;;;;;5012003;28;20052;-80
2022/12/06 01:50:27;;;;;;;10.90;6.65;;;4.20;99.90;;;;;;5004448;28;20026;-80
2022/12/06 01:53:11;;;;;;;13.02;8.07;;;4.20;99.90;;;;;;5006048;28;20038;-82
2022/12/06 01:55:39;;;;;;;8.73;6.93;;;4.20;99.90;;;;;;5013817;28;20037;-80
2022/12/06 01:58:13;;;;;;;11.15;8.05;;;4.20;99.90;;;;;;5006073;28;20470;-80
2022/12/06 02:00:39;;;;;;;13.52;8.18;;;4.20;99.90;;;;;;4996581;28;20041;-80
2022/12/06 02:03:09;;;;;;;11.60;7.68;;;4.20;99.90;;;;;;5008263;28;20388;-80
2022/12/06 02:05:37;;;;;;;13.32;7.35;;;4.20;99.90;;;;;;5011603;28;20385;-80
2022/12/06 02:08:03;;;;;;;10.98;7.38;;;4.20;99.90;;;;;;5007402;28;20025;-80
2022/12/06 02:10:30;;;;;;;11.73;7.60;;;4.20;99.90;;;;;;5009899;28;20026;-80
2022/12/06 02:12:57;;;;;;;15.45;8.77;;;4.20;99.90;;;;;;4990363;28;20037;-80
2022/12/06 02:15:46;;;;;;;11.15;8.35;;;4.30;99.90;;;;;;5004410;28;20045;-80
2022/12/06 02:18:21;;;;;;;14.70;8.90;;;4.30;99.90;;;;;;4978487;28;20356;-80
2022/12/06 02:21:24;;;;;;;16.55;8.35;;;4.20;99.90;;;;;;4991499;28;20034;-80
2022/12/06 02:24:31;;;;;;;12.27;7.05;;;4.20;99.90;;;;;;5003809;28;20029;-80
2022/12/06 02:27:23;;;;;;;12.10;7.07;;;4.20;99.90;;;;;;4963909;28;20042;-80
2022/12/06 02:30:09;;;;;;;11.38;7.50;;;4.20;99.90;;;;;;5005395;28;20037;-81
2022/12/06 02:32:38;;;;;;;12.98;7.10;;;4.20;99.90;;;;;;5009740;28;20061;-80
2022/12/06 02:35:19;;;;;;;12.15;7.93;;;4.20;99.90;;;;;;4987392;28;20364;-80
2022/12/06 02:38:02;;;;;;;13.95;8.60;;;4.10;99.90;;;;;;5007815;28;20033;-81
2022/12/06 02:40:34;;;;;;;11.82;6.80;;;4.10;99.90;;;;;;5006967;28;20367;-80
2022/12/06 02:43:17;;;;;;;10.95;7.35;;;4.10;99.90;;;;;;4976312;28;20042;-80
2022/12/06 02:45:50;;;;;;;12.00;7.13;;;4.10;99.90;;;;;;5012981;28;20055;-80
2022/12/06 02:48:18;;;;;;;9.80;7.75;;;4.10;99.90;;;;;;4980278;28;20046;-80
2022/12/06 02:50:48;;;;;;;14.52;8.13;;;4.10;99.90;;;;;;4989342;28;20030;-81
2022/12/06 02:53:18;;;;;;;13.82;8.32;;;4.10;99.90;;;;;;4985015;28;20041;-80
2022/12/06 02:55:45;;;;;;;12.45;9.18;;;4.10;99.90;;;;;;5008981;28;20378;-80
2022/12/06 02:58:11;;;;;;;28.25;17.38;;;4.10;99.90;;;;;;5009510;28;20029;-80
2022/12/06 03:00:43;;;;;;;28.35;16.75;;;4.10;99.90;;;;;;5008290;28;20038;-81
2022/12/06 03:03:24;;;;;;;31.58;18.88;;;4.10;99.90;;;;;;4986875;28;20042;-80
2022/12/06 03:06:00;;;;;;;68.78;33.42;;;4.10;99.90;;;;;;5008535;28;20121;-80
2022/12/06 03:08:41;;;;;;;33.92;19.23;;;4.10;99.90;;;;;;5006737;28;20037;-80
2022/12/06 03:11:08;;;;;;;20.13;10.73;;;4.10;99.90;;;;;;5014162;28;20485;-80
2022/12/06 03:13:58;;;;;;;115.05;48.58;;;4.10;99.90;;;;;;5005578;28;20053;-80
2022/12/06 03:16:30;;;;;;;45.22;21.65;;;4.10;99.90;;;;;;5007772;28;20026;-81
2022/12/06 03:18:56;;;;;;;25.77;13.10;;;4.10;99.90;;;;;;5007713;28;20033;-81
2022/12/06 03:21:33;;;;;;;19.55;9.73;;;4.10;99.90;;;;;;5012778;28;20026;-80
2022/12/06 03:24:00;;;;;;;27.17;14.68;;;4.10;99.90;;;;;;4990667;28;20045;-80
2022/12/06 03:26:31;;;;;;;26.98;14.48;;;4.10;99.90;;;;;;5009666;28;20045;-81
2022/12/06 03:29:00;;;;;;;19.20;11.27;;;4.10;99.90;;;;;;5008004;28;20038;-79
2022/12/06 03:31:29;;;;;;;15.52;9.60;;;4.10;99.90;;;;;;5010397;28;20028;-80
2022/12/06 03:34:00;;;;;;;13.43;8.43;;;4.10;99.90;;;;;;5006513;28;20038;-80
2022/12/06 03:36:28;;;;;;;12.88;8.88;;;4.10;99.90;;;;;;5011440;28;20034;-80
2022/12/06 03:38:58;;;;;;;13.80;9.55;;;4.10;99.90;;;;;;5010414;28;20033;-80
2022/12/06 03:41:30;;;;;;;15.60;9.50;;;4.10;99.90;;;;;;4994059;28;20402;-79
2022/12/06 03:43:58;;;;;;;15.77;10.95;;;4.10;99.90;;;;;;5008724;28;20145;-79
2022/12/06 03:46:30;;;;;;;15.27;10.40;;;4.10;99.90;;;;;;5036053;28;20040;-79
2022/12/06 03:49:00;;;;;;;17.55;8.90;;;4.10;99.90;;;;;;4995803;28;20037;-80
2022/12/06 03:51:33;;;;;;;16.50;9.95;;;4.00;99.90;;;;;;4991033;28;20054;-80
2022/12/06 03:54:03;;;;;;;14.57;9.25;;;4.10;99.90;;;;;;5000159;28;20031;-80
2022/12/06 03:56:30;;;;;;;17.00;10.20;;;4.00;99.90;;;;;;5006041;28;20034;-80
2022/12/06 03:58:56;;;;;;;14.82;9.43;;;4.00;99.90;;;;;;5007999;28;20046;-80
2022/12/06 04:01:23;;;;;;;13.07;7.78;;;4.00;99.90;;;;;;5006246;28;20359;-79
2022/12/06 04:03:49;;;;;;;13.80;8.30;;;4.00;99.90;;;;;;5008949;28;20046;-80
2022/12/06 04:06:15;;;;;;;10.63;7.03;;;4.00;99.90;;;;;;5006629;28;20664;-80
2022/12/06 04:08:42;;;;;;;9.13;6.40;;;4.00;99.90;;;;;;5010961;28;20026;-80
2022/12/06 04:11:08;;;;;;;9.13;5.93;;;4.00;99.90;;;;;;5011308;28;20026;-80
2022/12/06 04:13:34;;;;;;;8.70;5.25;;;4.00;99.90;;;;;;5012757;28;20045;-79
2022/12/06 04:16:02;;;;;;;9.32;4.68;;;3.90;99.90;;;;;;5009403;28;20030;-80
2022/12/06 04:18:28;;;;;;;7.70;4.85;;;3.90;99.90;;;;;;5011047;28;20037;-80
2022/12/06 04:23:44;;;;;;;5.38;3.65;;;3.90;99.90;;;;;;5008284;28;20486;-80
2022/12/06 04:26:13;;;;;;;6.10;3.20;;;4.00;99.90;;;;;;5014376;28;20026;-79
2022/12/06 04:39:39;;;;;;;6.10;3.55;;;4.00;99.90;;;;;;5014687;28;20076;-80
2022/12/06 04:44:50;;;;;;;6.22;3.50;;;4.00;99.90;;;;;;4989871;28;20034;-80
2022/12/06 04:47:16;;;;;;;6.50;3.78;;;4.00;99.90;;;;;;5010868;28;20029;-82
2022/12/06 04:49:43;;;;;;;5.68;3.25;;;4.00;99.90;;;;;;5012688;28;20022;-80
2022/12/06 04:52:09;;;;;;;4.63;3.50;;;4.00;99.90;;;;;;5005477;28;20038;-80
2022/12/06 04:54:36;;;;;;;5.35;3.72;;;4.00;99.90;;;;;;5008861;28;20654;-80
2022/12/06 04:57:09;;;;;;;4.80;3.13;;;4.00;99.90;;;;;;5007693;28;20034;-80
2022/12/06 04:59:41;;;;;;;4.82;2.58;;;4.00;99.90;;;;;;4975849;28;20041;-80
2022/12/06 05:02:11;;;;;;;6.93;3.15;;;4.00;98.70;;;;;;5009623;28;20045;-80
2022/12/06 05:04:37;;;;;;;4.55;3.28;;;4.00;96.10;;;;;;4965219;28;20404;-80
2022/12/06 05:07:03;;;;;;;4.20;3.03;;;4.00;94.90;;;;;;4969479;28;20039;-80
2022/12/06 05:09:29;;;;;;;4.47;2.95;;;4.00;94.90;;;;;;4969711;28;20383;-80
2022/12/06 05:11:56;;;;;;;4.50;2.95;;;4.00;95.80;;;;;;4973644;28;20045;-80
2022/12/06 05:14:22;;;;;;;5.38;2.72;;;4.00;94.70;;;;;;4966716;28;20038;-80
2022/12/06 05:16:48;;;;;;;4.60;2.92;;;4.10;92.20;;;;;;4973563;28;20061;-80
2022/12/06 05:19:14;;;;;;;3.97;2.30;;;3.90;87.20;;;;;;4967901;28;20046;-80
2022/12/06 05:21:41;;;;;;;5.90;2.75;;;3.90;74.60;;;;;;4978602;28;20027;-81
2022/12/06 05:24:07;;;;;;;3.38;2.45;;;4.00;64.20;;;;;;4971285;28;20359;-82
2022/12/06 05:26:33;;;;;;;5.22;2.75;;;4.00;57.80;;;;;;4969902;28;20367;-82
2022/12/06 05:29:00;;;;;;;4.93;2.70;;;4.00;52.60;;;;;;4973659;28;20041;-77
2022/12/06 05:31:26;;;;;;;3.83;2.60;;;3.90;45.30;;;;;;4970087;28;20039;-82
2022/12/06 05:33:52;;;;;;;4.80;2.38;;;4.00;42.00;;;;;;4969403;28;20034;-80
2022/12/06 05:36:25;;;;;;;5.25;2.72;;;3.90;44.00;;;;;;4969710;28;20039;-82
2022/12/06 05:38:51;;;;;;;5.03;2.40;;;3.90;41.70;;;;;;4969157;28;20022;-82
2022/12/06 05:41:19;;;;;;;3.03;2.00;;;3.90;38.60;;;;;;4972615;28;20034;-82
2022/12/06 05:43:45;;;;;;;4.55;2.80;;;4.00;35.80;;;;;;4970767;28;20050;-82
2022/12/06 05:46:11;;;;;;;3.80;1.90;;;3.90;38.80;;;;;;4971753;28;20038;-82
2022/12/06 05:48:38;;;;;;;4.05;2.67;;;3.90;42.40;;;;;;4971550;28;20035;-82
2022/12/06 05:51:04;;;;;;;3.88;2.15;;;3.90;41.70;;;;;;4970383;28;20046;-81
2022/12/06 05:53:30;;;;;;;3.97;2.30;;;3.90;36.50;;;;;;4967961;28;20034;-81
2022/12/06 05:56:07;;;;;;;4.18;2.97;;;3.90;36.10;;;;;;4968973;28;20042;-80
2022/12/06 05:58:33;;;;;;;4.43;2.70;;;3.90;38.50;;;;;;4963303;28;20035;-81
2022/12/06 06:00:59;;;;;;;4.75;2.63;;;3.90;32.50;;;;;;4972439;28;20038;-78
2022/12/06 06:03:26;;;;;;;4.32;2.28;;;3.90;28.10;;;;;;4985291;28;20361;-83
2022/12/06 06:05:57;;;;;;;6.07;2.92;;;3.90;24.30;;;;;;5007869;28;20044;-82
2022/12/06 06:08:23;;;;;;;4.32;2.75;;;4.00;26.10;;;;;;5007145;28;20033;-82
2022/12/06 06:10:49;;;;;;;5.15;3.40;;;4.00;25.50;;;;;;5014807;28;20033;-85
2022/12/06 06:13:15;;;;;;;6.50;2.88;;;3.90;25.40;;;;;;5016657;28;20053;-80
2022/12/06 06:15:42;;;;;;;4.38;2.38;;;3.90;28.70;;;;;;5011565;28;20033;-80
2022/12/06 06:18:08;;;;;;;5.60;3.47;;;3.90;31.80;;;;;;5005470;28;20026;-80
2022/12/06 06:20:34;;;;;;;5.32;2.63;;;3.90;32.30;;;;;;4994883;28;20455;-80
2022/12/06 06:23:00;;;;;;;5.28;3.00;;;3.90;31.40;;;;;;4999242;28;20045;-79
2022/12/06 06:25:26;;;;;;;5.28;3.40;;;3.90;31.40;;;;;;5011007;28;20029;-80
2022/12/06 06:27:53;;;;;;;5.97;3.15;;;3.90;27.20;;;;;;5012781;28;20026;-80
2022/12/06 06:30:20;;;;;;;5.28;3.15;;;3.90;29.00;;;;;;5006249;28;20285;-80
2022/12/06 06:32:46;;;;;;;6.68;3.10;;;3.90;31.30;;;;;;5007056;28;20090;-79
2022/12/06 06:35:13;;;;;;;5.65;3.30;;;3.90;31.60;;;;;;5006499;28;20044;-79
2022/12/06 06:37:39;;;;;;;6.72;3.70;;;3.90;33.40;;;;;;5008261;28;20086;-80
2022/12/06 06:40:06;;;;;;;5.97;3.65;;;3.90;35.30;;;;;;5007695;28;20026;-80
2022/12/06 06:42:32;;;;;;;6.90;3.63;;;3.80;34.50;;;;;;5011104;28;20045;-81
2022/12/06 06:44:58;;;;;;;6.35;4.10;;;3.90;35.70;;;;;;5006542;28;20029;-81
2022/12/06 06:47:24;;;;;;;5.05;3.40;;;3.80;34.20;;;;;;4989095;28;20033;-81
2022/12/06 06:49:50;;;;;;;6.85;4.03;;;3.80;34.50;;;;;;5008896;28;20034;-81
2022/12/06 06:52:16;;;;;;;5.93;3.63;;;3.80;35.60;;;;;;5010567;28;20040;-81
2022/12/06 06:54:43;;;;;;;4.50;2.92;;;3.80;37.40;;;;;;5006238;28;20590;-81
2022/12/06 06:57:09;;;;;;;7.70;3.83;;;3.80;37.80;;;;;;5011134;28;20038;-80
2022/12/06 06:59:35;;;;;;;6.75;4.10;;;3.80;38.60;;;;;;5008851;28;20030;-79
2022/12/06 07:02:01;;;;;;;9.43;4.07;;;3.80;41.10;;;;;;5005896;28;20057;-79
2022/12/06 07:04:27;;;;;;;6.43;4.38;;;3.90;43.00;;;;;;5008391;28;20050;-81
2022/12/06 07:06:54;;;;;;;5.80;3.55;;;3.80;44.00;;;;;;5013234;28;20040;-80
2022/12/06 07:09:20;;;;;;;6.32;3.88;;;3.80;44.50;;;;;;5012744;28;20034;-80
2022/12/06 07:11:46;;;;;;;6.18;3.67;;;3.80;46.00;;;;;;4991410;28;20026;-80
2022/12/06 07:14:12;;;;;;;6.78;4.10;;;3.80;47.30;;;;;;4985044;28;20391;-79
2022/12/06 07:16:38;;;;;;;8.00;4.85;;;3.80;47.60;;;;;;5000404;28;20030;-81
2022/12/06 07:19:04;;;;;;;6.40;4.40;;;3.80;50.40;;;;;;5009931;28;20026;-80
2022/12/06 07:21:30;;;;;;;7.07;4.47;;;3.80;53.10;;;;;;5005553;28;20030;-81
2022/12/06 07:23:59;;;;;;;6.47;4.45;;;3.80;53.30;;;;;;5010183;28;20030;-80
2022/12/06 07:26:27;;;;;;;7.90;4.47;;;3.80;50.20;;;;;;5002101;28;20034;-79
2022/12/06 07:28:55;;;;;;;5.97;3.72;;;3.80;45.00;;;;;;5012055;28;20431;-80
2022/12/06 07:31:23;;;;;;;8.85;4.43;;;3.80;47.10;;;;;;5009713;28;20117;-80
2022/12/06 07:33:54;;;;;;;6.25;4.00;;;3.80;44.70;;;;;;5004504;28;20030;-81
2022/12/06 07:36:22;;;;;;;5.80;3.75;;;3.90;46.70;;;;;;4991379;28;20289;-80
2022/12/06 07:38:50;;;;;;;6.85;4.05;;;3.80;47.80;;;;;;5011839;28;20045;-80
2022/12/06 07:46:56;;;;;;;10.05;6.20;;;3.80;52.90;;;;;;4994163;28;20042;-80
2022/12/06 07:49:23;;;;;;;8.02;4.28;;;3.80;52.90;;;;;;5009379;28;20026;-79
2022/12/06 07:51:49;;;;;;;7.15;4.75;;;3.90;52.80;;;;;;5014054;28;20033;-80
2022/12/06 07:54:16;;;;;;;8.05;4.43;;;3.80;53.90;;;;;;5012442;28;20041;-80
2022/12/06 07:56:43;;;;;;;8.43;4.60;;;3.80;54.50;;;;;;5032392;28;20026;-77
2022/12/06 07:59:09;;;;;;;8.18;5.13;;;3.80;56.30;;;;;;5018771;28;20041;-79
2022/12/06 08:01:35;;;;;;;8.98;4.78;;;3.80;58.20;;;;;;5015467;28;20026;-80
2022/12/06 08:04:03;;;;;;;6.47;4.22;;;3.80;62.40;;;;;;5013116;28;20049;-76
2022/12/06 08:06:31;;;;;;;7.80;4.63;;;3.80;62.80;;;;;;5005601;28;20037;-80
2022/12/06 08:08:57;;;;;;;8.23;4.20;;;3.80;64.50;;;;;;5010822;28;20037;-80
2022/12/06 08:11:23;;;;;;;9.70;5.47;;;3.80;64.60;;;;;;4998467;28;20034;-80
2022/12/06 08:13:50;;;;;;;9.13;5.90;;;3.80;63.90;;;;;;5010245;28;20030;-80
2022/12/06 08:16:16;;;;;;;9.75;5.47;;;3.80;66.70;;;;;;5014840;28;20030;-81
2022/12/06 08:18:43;;;;;;;9.40;5.85;;;3.90;70.50;;;;;;5012305;28;20026;-81
2022/12/06 08:21:09;;;;;;;8.73;5.75;;;3.90;71.20;;;;;;4995187;28;20485;-81
2022/12/06 08:23:36;;;;;;;8.38;5.45;;;3.90;70.00;;;;;;4997773;28;20482;-80
2022/12/06 08:26:05;;;;;;;11.73;6.60;;;3.90;66.90;;;;;;5011803;28;20036;-78
2022/12/06 08:28:33;;;;;;;10.63;6.45;;;3.90;67.40;;;;;;5004749;28;20037;-81
2022/12/06 08:31:03;;;;;;;10.68;5.85;;;4.00;62.20;;;;;;5014517;28;20037;-80
2022/12/06 08:33:32;;;;;;;9.35;5.53;;;4.00;60.80;;;;;;5002972;28;20038;-80
2022/12/06 08:35:58;;;;;;;9.82;5.72;;;4.00;56.70;;;;;;4995128;28;20037;-81
2022/12/06 08:38:24;;;;;;;9.55;6.18;;;4.00;55.90;;;;;;5012314;28;20033;-80
2022/12/06 08:40:50;;;;;;;10.95;7.47;;;4.00;58.10;;;;;;5016190;28;20034;-80
2022/12/06 08:43:16;;;;;;;9.43;6.47;;;4.00;57.50;;;;;;5008650;28;20036;-81
2022/12/06 08:45:43;;;;;;;10.85;8.23;;;4.10;56.00;;;;;;4999359;28;20034;-80
2022/12/06 08:48:09;;;;;;;9.50;6.18;;;4.10;54.00;;;;;;5013734;28;20347;-80
2022/12/06 08:50:37;;;;;;;10.18;5.88;;;4.20;49.50;;;;;;5011756;28;20030;-80
2022/12/06 08:53:03;;;;;;;8.27;5.32;;;4.20;46.70;;;;;;4985039;28;20042;-80
2022/12/06 08:55:30;;;;;;;8.52;5.30;;;4.30;44.60;;;;;;5007051;28;20026;-80
2022/12/06 08:57:56;;;;;;;8.48;4.75;;;4.30;43.70;;;;;;4993881;28;20045;-80
2022/12/06 09:00:22;;;;;;;7.65;5.15;;;4.40;40.30;;;;;;5006101;28;20036;-81
2022/12/06 09:02:48;;;;;;;8.35;4.78;;;4.40;39.10;;;;;;4993326;28;20057;-80
2022/12/06 09:05:15;;;;;;;8.57;4.82;;;4.40;32.30;;;;;;4993790;28;20034;-79
2022/12/06 09:07:41;;;;;;;7.97;4.90;;;4.60;34.60;;;;;;4992528;28;20383;-80
2022/12/06 09:10:07;;;;;;;8.00;4.82;;;4.70;28.90;;;;;;5011292;28;20040;-80
2022/12/06 09:12:34;;;;;;;10.20;5.40;;;4.70;27.20;;;;;;5011597;28;20033;-80
2022/12/06 09:15:00;;;;;;;6.60;4.75;;;4.70;24.80;;;;;;5008666;28;20048;-80
2022/12/06 09:17:26;;;;;;;11.68;5.28;;;4.80;26.00;;;;;;5009613;28;20411;-79
2022/12/06 09:19:52;;;;;;;8.20;4.60;;;4.80;26.80;;;;;;5009135;28;20478;-80
2022/12/06 09:22:18;;;;;;;6.78;4.80;;;4.90;24.50;;;;;;5007653;28;20034;-80
2022/12/06 09:24:44;;;;;;;8.82;5.13;;;4.90;20.70;;;;;;4989483;28;20050;-80
2022/12/06 09:27:10;;;;;;;19.88;11.50;;;4.90;17.10;;;;;;5003901;28;20034;-81
2022/12/06 09:29:36;;;;;;;8.48;4.70;;;4.80;9.40;;;;;;5012349;28;20033;-81
2022/12/06 09:32:03;;;;;;;12.80;8.13;;;4.80;7.70;;;;;;5013976;28;20097;-81
2022/12/06 09:34:30;;;;;;;11.30;7.03;;;4.70;1.70;;;;;;5005286;28;20069;-82
2022/12/06 09:37:08;;;;;;;6.45;4.85;;;4.70;2.20;;;;;;5007909;28;20034;-81
2022/12/06 09:39:46;;;;;;;5.65;3.67;;;4.70;4.90;;;;;;5011072;28;20034;-82
2022/12/06 09:42:39;;;;;;;6.10;3.88;;;4.70;4.70;;;;;;4987044;28;20026;-83
2022/12/06 09:45:17;;;;;;;8.63;4.28;;;4.60;1.00;;;;;;5008499;28;20042;-80
2022/12/06 09:47:54;;;;;;;5.25;3.55;;;4.70;3.00;;;;;;5012710;28;20387;-82
2022/12/06 09:50:23;;;;;;;7.75;3.67;;;4.70;3.20;;;;;;5009731;28;20034;-82
2022/12/06 09:53:04;;;;;;;7.60;3.85;;;4.70;4.60;;;;;;5002992;28;20027;-82
2022/12/06 09:55:50;;;;;;;4.68;3.08;;;4.70;5.40;;;;;;4991620;28;20045;-81
2022/12/06 09:58:19;;;;;;;7.45;3.00;;;4.70;7.00;;;;;;5006905;28;20375;-82
2022/12/06 10:01:06;;;;;;;5.25;3.45;;;4.80;6.50;;;;;;5009686;28;20101;-82
2022/12/06 10:03:54;;;;;;;5.35;4.10;;;4.80;3.70;;;;;;4990963;28;20046;-81
2022/12/06 10:06:24;;;;;;;5.88;3.63;;;4.70;1.00;;;;;;5005592;28;20057;-82
2022/12/06 10:09:16;;;;;;;5.32;3.28;;;4.70;1.00;;;;;;5003803;28;20514;-81
2022/12/06 10:11:48;;;;;;;6.47;3.13;;;4.70;1.20;;;;;;5008846;28;20030;-82
2022/12/06 10:14:33;;;;;;;4.72;2.65;;;4.70;1.40;;;;;;5005010;28;20463;-82
2022/12/06 10:17:18;;;;;;;7.53;3.60;;;4.70;3.00;;;;;;5010918;28;20496;-82
2022/12/06 10:19:51;;;;;;;5.15;2.88;;;4.70;1.00;;;;;;4994267;28;20368;-82
2022/12/06 10:22:29;;;;;;;4.80;3.03;;;4.70;1.00;;;;;;5007953;28;20029;-82
2022/12/06 10:25:12;;;;;;;5.47;2.95;;;4.70;1.90;;;;;;5010417;28;20026;-81
2022/12/06 10:27:48;;;;;;;4.97;2.50;;;4.70;1.00;;;;;;5006144;28;20040;-82
2022/12/06 10:30:16;;;;;;;6.35;3.92;;;4.70;1.00;;;;;;4968349;28;20508;-82
2022/12/06 10:33:16;;;;;;;6.78;3.33;;;4.70;1.00;;;;;;5007594;28;20045;-81
2022/12/06 10:35:54;;;;;;;3.95;2.78;;;4.80;1.00;;;;;;4996419;28;20054;-82
2022/12/06 10:38:38;;;;;;;5.63;3.53;;;4.70;1.00;;;;;;5008999;28;20030;-82
2022/12/06 10:41:17;;;;;;;12.02;7.57;;;4.80;1.00;;;;;;5004839;28;20372;-82
2022/12/06 10:44:00;;;;;;;7.57;4.60;;;4.80;1.00;;;;;;5008174;28;20041;-81
2022/12/06 10:50:03;;;;;;;4.38;2.70;;;4.80;1.00;;;;;;5009928;28;20033;-83
2022/12/06 10:52:43;;;;;;;4.63;2.63;;;4.70;1.00;;;;;;5008204;28;20041;-80
2022/12/06 10:55:09;;;;;;;4.35;2.72;;;4.80;1.00;;;;;;5007751;28;20038;-82
2022/12/06 10:58:05;;;;;;;3.60;2.65;;;4.90;1.00;;;;;;4991435;28;20030;-82
2022/12/06 11:00:58;;;;;;;4.40;2.58;;;4.90;1.00;;;;;;5007790;28;20038;-81
2022/12/06 11:03:38;;;;;;;3.72;2.35;;;4.90;1.00;;;;;;4995798;28;20415;-81
2022/12/06 11:06:36;;;;;;;3.05;2.33;;;5.00;1.00;;;;;;4984759;28;20030;-82
2022/12/06 11:09:30;;;;;;;5.50;2.95;;;5.00;1.00;;;;;;5001197;28;20038;-81
2022/12/06 11:11:57;;;;;;;3.90;2.38;;;5.00;1.00;;;;;;4993742;28;20383;-82
2022/12/06 11:14:45;;;;;;;4.25;2.22;;;5.00;1.00;;;;;;4989820;28;20501;-82
2022/12/06 11:17:25;;;;;;;3.13;2.08;;;5.10;1.00;;;;;;5007171;28;20034;-81
2022/12/06 11:20:09;;;;;;;4.38;2.97;;;5.10;1.00;;;;;;5008928;28;20092;-83
2022/12/06 11:22:52;;;;;;;3.03;2.25;;;5.10;1.00;;;;;;4996248;28;20049;-80
2022/12/06 11:25:24;;;;;;;2.90;2.25;;;5.10;1.00;;;;;;4993315;28;20056;-85
2022/12/06 11:28:20;;;;;;;2.65;1.70;;;5.10;1.00;;;;;;5000200;28;20387;-80
2022/12/06 11:30:50;;;;;;;3.33;1.88;;;5.10;1.00;;;;;;5003012;28;20041;-77
2022/12/06 11:33:18;;;;;;;4.47;2.42;;;5.10;1.00;;;;;;5003882;28;20033;-77
2022/12/06 11:35:46;;;;;;;4.18;3.17;;;5.10;1.00;;;;;;5004203;28;20022;-79
2022/12/06 11:38:14;;;;;;;7.32;4.78;;;5.10;1.00;;;;;;5010219;28;20026;-79
2022/12/06 11:40:45;;;;;;;4.65;4.03;;;5.10;1.00;;;;;;5011534;28;20044;-81
2022/12/06 11:43:16;;;;;;;;;;;5.10;1.00;;;;;;5010751;28;20043;-82
2022/12/06 11:45:44;;;;;;;6.50;5.25;;;5.20;1.00;;;;;;4991973;28;19921;-80
2022/12/06 11:48:18;;;;;;;9.82;7.65;;;5.20;1.00;;;;;;5013334;28;20037;-81
2022/12/06 11:50:46;;;;;;;6.22;3.55;;;5.30;1.00;;;;;;5007416;28;20042;-81
2022/12/06 11:53:35;;;;;;;3.45;2.38;;;5.40;1.00;;;;;;5015467;28;20038;-80
2022/12/06 11:56:27;;;;;;;4.10;2.30;;;5.30;1.00;;;;;;5006341;28;20026;-80
2022/12/06 11:59:27;;;;;;;4.47;2.17;;;5.30;1.00;;;;;;5008010;28;20029;-83
2022/12/06 12:02:02;;;;;;;4.75;2.13;;;5.30;1.00;;;;;;4989313;28;20522;-80
2022/12/06 12:04:42;;;;;;;6.78;2.67;;;5.20;1.00;;;;;;5007373;28;20060;-78
2022/12/06 12:07:09;;;;;;;3.95;2.28;;;5.20;1.00;;;;;;5010284;28;20049;-79
2022/12/06 12:10:00;;;;;;;3.90;1.63;;;5.20;1.00;;;;;;5013536;28;20648;-78
2022/12/06 12:13:42;;;;;;;;;;;5.20;1.00;;;;;;4995222;28;20036;-78
2022/12/06 12:15:21;;;;;;;3.55;2.13;;;5.20;1.00;;;;;;4990392;28;19921;-79
2022/12/06 12:17:51;;;;;;;3.35;2.08;;;5.30;1.00;;;;;;4994727;28;20033;-77
2022/12/06 12:20:25;;;;;;;3.38;1.98;;;5.30;1.00;;;;;;5011605;28;20411;-79
2022/12/06 12:23:19;;;;;;;3.75;2.25;;;5.20;1.00;;;;;;5010373;28;20045;-78
2022/12/06 12:25:59;;;;;;;3.42;1.63;;;5.20;1.00;;;;;;5005656;28;20042;-79
2022/12/06 12:28:29;;;;;;;5.18;2.45;;;5.20;1.00;;;;;;5009518;28;20049;-79
2022/12/06 12:30:58;;;;;;;3.60;2.08;;;5.20;1.00;;;;;;5009929;28;20026;-80
2022/12/06 12:33:26;;;;;;;4.05;2.55;;;5.30;1.00;;;;;;4985833;28;20042;-79
2022/12/06 12:36:03;;;;;;;4.55;1.95;;;5.30;1.00;;;;;;5012572;28;20387;-79
2022/12/06 12:38:56;;;;;;;4.25;2.10;;;5.30;1.00;;;;;;5009499;28;20031;-80
2022/12/06 12:41:31;;;;;;;3.60;1.75;;;5.20;1.00;;;;;;5009512;28;20040;-79
2022/12/06 12:44:12;;;;;;;4.43;2.30;;;5.20;1.00;;;;;;5008896;28;20041;-78
2022/12/06 12:46:42;;;;;;;;;;;5.20;1.00;;;;;;5008909;28;20106;-79
2022/12/06 12:49:22;;;;;;;3.75;2.20;;;5.20;1.00;;;;;;5012152;28;19914;-79
2022/12/06 12:51:49;;;;;;;5.32;2.63;;;5.20;1.00;;;;;;5007165;28;20332;-79
2022/12/06 12:54:29;;;;;;;3.67;2.67;;;5.30;1.00;;;;;;5004371;28;20049;-79
2022/12/06 12:56:56;;;;;;;3.17;2.10;;;5.30;1.00;;;;;;5009324;28;20037;-79
2022/12/06 12:59:26;;;;;;;4.18;2.42;;;5.30;1.00;;;;;;5005374;28;20038;-78
2022/12/06 13:02:21;;;;;;;3.72;2.42;;;5.40;1.00;;;;;;5008515;28;20027;-79
2022/12/06 13:04:51;;;;;;;7.43;4.75;;;5.40;1.00;;;;;;4976575;28;20054;-79
2022/12/06 13:07:24;;;;;;;7.07;3.55;;;5.60;1.00;;;;;;4971865;28;20041;-79
2022/12/06 13:09:59;;;;;;;4.03;1.90;;;5.60;1.00;;;;;;4965920;28;20058;-79
2022/12/06 13:12:32;;;;;;;3.90;2.33;;;5.50;1.00;;;;;;4964568;28;20471;-78
2022/12/06 13:15:05;;;;;;;6.13;2.85;;;5.60;1.00;;;;;;4970988;28;20407;-79
2022/12/06 13:17:34;;;;;;;5.35;3.67;;;5.50;1.00;;;;;;4972549;28;20031;-79
2022/12/06 13:20:20;;;;;;;3.38;2.50;;;5.50;1.00;;;;;;4971377;28;20028;-78
2022/12/06 13:22:51;;;;;;;4.35;2.30;;;5.50;1.00;;;;;;4970521;28;20027;-78
2022/12/06 13:25:17;;;;;;;4.13;2.53;;;5.60;1.00;;;;;;4972550;28;20046;-79
2022/12/06 13:27:47;;;;;;;3.83;2.15;;;5.50;1.00;;;;;;4971292;28;20054;-78
2022/12/06 13:30:21;;;;;;;3.70;1.70;;;5.50;1.00;;;;;;4975289;28;20027;-78
2022/12/06 13:32:57;;;;;;;4.13;2.58;;;5.40;1.00;;;;;;4969346;28;20023;-80
2022/12/06 13:35:36;;;;;;;3.88;2.10;;;5.40;1.00;;;;;;4972001;28;20066;-79
2022/12/06 13:38:24;;;;;;;3.33;2.15;;;5.60;1.00;;;;;;4966926;28;20469;-78
2022/12/06 13:40:52;;;;;;;4.82;1.98;;;5.50;1.00;;;;;;4973419;28;20504;-79
2022/12/06 13:43:25;;;;;;;2.97;1.42;;;5.50;1.00;;;;;;4964013;28;20051;-78
2022/12/06 13:46:14;;;;;;;3.85;2.50;;;5.60;1.00;;;;;;4966203;28;20034;-79